PANC/ANC METAR and TAF weather

Enter ICAO airport designator
Station Type Date Time Source
PANC METAR 2021/10/20 06:53 UTC NOAA

PANC 200653Z 20012G15KT 10SM -RA BKN055 OVC070 04/02 A2911 RMK AO2 SLP859 P0000 T00440017


Station Type Date Time Source
PANC Decoded METAR 2021/10/20 06:53 UTC NOAA

TED STEVENS ANCHORAGE INTERNATIONAL , AK, United States (PANC) 61-10N 150-02W 48M
Oct 20, 2021 - 02:53 AM EDT / 2021.10.20 0653 UTC
Wind: from the SSW (200 degrees) at 14 MPH (12 KT) gusting to 17 MPH (15 KT):0
Visibility: 10 mile(s):0
Sky conditions: overcast
Weather: light rain
Precipitation last hour: A trace
Temperature: 39.9 F (4.4 C)
Dew Point: 35.1 F (1.7 C)
Relative Humidity: 82%
Pressure (altimeter): 29.11 in. Hg (985 hPa)
ob: PANC 200653Z 20012G15KT 10SM -RA BKN055 OVC070 04/02 A2911 RMK AO2 SLP859 P0000 T00440017
cycle: 7

Station Type Date Time Source
PANC TAF 2021/10/20 06:42 UTC NOAA

TAF PANC 200538Z 2006/2112 16012G20KT 6SM -RA SCT030 BKN050
FM200900 16008KT P6SM VCSH SCT030 BKN050
FM201500 01005KT P6SM SCT030 BKN060
FM210300 35006KT P6SM -RA BKN030 OVC050
FM210600 VRB04KT 6SM -RA BR BKN025 OVC040

Example: see airport list